Time;durP1;ratioP1;P1;durP2;ratioP2;P2;SDS_P1;SDS_P2;PMS_P1;PMS_P2;Temp;Humidity;BMP_temperature;BMP_pressure;BME280_temperature;BME280_humidity;BME280_pressure;Samples;Min_cycle;Max_cycle;Signal;HPM_P1;HPM_P2
2023/03/10 00:38:55;;;;;;;15.80;7.30;;;;;;;8.60;84.53;99296.55;106541;1289;599316;-95
2023/03/10 00:41:51;;;;;;;11.50;8.40;;;;;;;8.61;84.80;99293.36;108548;1269;62533;-95
2023/03/10 00:44:29;;;;;;;12.40;8.80;;;;;;;8.62;85.00;99298.16;108828;1268;59696;-96
2023/03/10 00:47:16;;;;;;;18.30;8.60;;;;;;;8.62;85.17;99299.52;108810;1269;71901;-95
2023/03/10 00:50:49;;;;;;;14.30;8.80;;;;;;;8.60;85.25;99304.33;106928;1282;600034;-94
2023/03/10 00:53:58;;;;;;;15.90;8.80;;;;;;;8.56;85.58;99301.73;108576;1266;63279;-94
2023/03/10 00:56:33;;;;;;;15.90;9.50;;;;;;;8.52;86.04;99300.23;108206;1273;60217;-93
2023/03/10 00:59:12;;;;;;;14.10;8.70;;;;;;;8.50;86.63;99300.58;106962;1273;71220;-95
2023/03/10 01:01:44;;;;;;;13.00;8.30;;;;;;;8.47;87.00;99306.69;107935;1273;64900;-95
2023/03/10 01:04:29;;;;;;;;;;;;;;;8.46;87.34;99308.37;108131;1259;599420;-93
2023/03/10 01:07:01;;;;;;;19.20;8.60;;;;;;;8.43;87.64;99305.25;108819;1265;62096;-95
2023/03/10 01:09:35;;;;;;;18.50;9.90;;;;;;;8.43;87.76;99308.92;108695;1270;59731;-96
2023/03/10 01:12:06;;;;;;;17.00;9.10;;;;;;;8.45;87.88;99309.77;108751;1263;72054;-94
2023/03/10 01:14:40;;;;;;;17.70;8.60;;;;;;;8.46;87.97;99315.81;108929;1263;63957;-95
2023/03/10 01:17:09;;;;;;;15.00;10.00;;;;;;;8.48;87.96;99317.73;108967;1262;72612;-96
2023/03/10 01:19:43;;;;;;;20.40;8.70;;;;;;;8.49;87.93;99330.07;108307;1262;61974;-94
2023/03/10 01:22:14;;;;;;;16.00;8.30;;;;;;;8.50;88.07;99332.75;107588;1262;60162;-95
2023/03/10 01:24:43;;;;;;;14.50;8.90;;;;;;;8.51;88.03;99337.94;108118;1262;73851;-96
2023/03/10 01:27:20;;;;;;;13.30;9.00;;;;;;;8.50;88.00;99340.42;107678;1263;63441;-96
2023/03/10 01:30:12;;;;;;;19.60;10.50;;;;;;;8.49;88.06;99344.02;106530;1263;73039;-96
2023/03/10 01:32:42;;;;;;;17.90;10.00;;;;;;;8.48;88.04;99348.27;106208;1263;62268;-95
2023/03/10 01:35:39;;;;;;;15.50;9.80;;;;;;;8.49;87.87;99353.89;106783;1265;59621;-96
2023/03/10 01:38:14;;;;;;;14.10;7.80;;;;;;;8.50;87.86;99357.85;107062;1257;73638;-95
2023/03/10 01:40:48;;;;;;;18.30;9.30;;;;;;;8.50;88.00;99362.03;107486;1259;63727;-95
2023/03/10 01:43:50;;;;;;;17.40;9.60;;;;;;;8.51;88.11;99370.67;106784;1264;73414;-96
2023/03/10 01:46:54;;;;;;;13.20;8.00;;;;;;;8.57;88.12;99374.98;108000;1259;61205;-90
2023/03/10 01:49:51;;;;;;;18.50;9.50;;;;;;;8.64;87.87;99384.36;108896;1259;62696;-96
2023/03/10 01:52:30;;;;;;;19.10;9.50;;;;;;;8.67;87.59;99387.84;107351;1258;73389;-96
2023/03/10 01:55:39;;;;;;;19.20;9.80;;;;;;;8.72;87.35;99387.80;108004;1260;64511;-95
2023/03/10 01:58:26;;;;;;;15.50;9.40;;;;;;;8.74;86.99;99393.23;107998;1260;71590;-95
2023/03/10 02:01:14;;;;;;;24.30;11.30;;;;;;;8.70;86.74;99387.61;107449;1259;61010;-96
2023/03/10 02:04:40;;;;;;;14.70;10.20;;;;;;;8.73;86.60;99389.11;107936;1258;59553;-94
2023/03/10 02:07:16;;;;;;;16.60;7.50;;;;;;;8.75;86.45;99388.52;108511;1259;73116;-95
2023/03/10 02:10:14;;;;;;;16.80;9.30;;;;;;;8.77;86.57;99390.80;108527;1260;62834;-96
2023/03/10 02:13:19;;;;;;;17.10;9.00;;;;;;;8.80;86.43;99379.24;108786;1259;74303;-94
2023/03/10 02:15:51;;;;;;;20.30;9.30;;;;;;;8.85;86.15;99387.55;107108;1259;61099;-94
2023/03/10 02:18:21;;;;;;;17.10;9.20;;;;;;;8.88;85.97;99388.00;106343;1264;60499;-96
2023/03/10 02:21:04;;;;;;;17.60;9.60;;;;;;;8.85;85.59;99386.50;106229;1269;73326;-95
2023/03/10 02:23:43;;;;;;;17.20;8.60;;;;;;;8.84;85.34;99386.94;105962;1270;62050;-96
2023/03/10 02:26:41;;;;;;;16.30;8.80;;;;;;;8.81;85.00;99383.31;106352;1262;72365;-94
2023/03/10 02:29:26;;;;;;;16.30;9.30;;;;;;;8.74;85.09;99387.17;107789;1262;61920;-94
2023/03/10 02:31:56;;;;;;;;;;;;;;;8.66;85.46;99389.66;107736;1266;60270;-94
2023/03/10 02:34:25;;;;;;;14.50;8.60;;;;;;;8.60;85.63;99394.05;107286;1260;73327;-96
2023/03/10 02:36:55;;;;;;;20.10;8.80;;;;;;;8.55;85.79;99392.31;108711;1260;62440;-93
2023/03/10 02:39:24;;;;;;;21.50;9.20;;;;;;;8.53;85.88;99397.73;109031;1260;72591;-96
2023/03/10 02:42:00;;;;;;;17.90;9.40;;;;;;;8.47;85.87;99400.23;108931;1260;60277;-93
2023/03/10 02:44:40;;;;;;;15.70;7.80;;;;;;;8.48;85.70;99400.52;107094;1260;59997;-95
2023/03/10 02:47:09;;;;;;;17.60;7.90;;;;;;;8.46;85.84;99402.73;106317;1263;72812;-93
2023/03/10 02:49:51;;;;;;;18.10;7.50;;;;;;;8.43;85.92;99403.42;106407;1256;66679;-93
2023/03/10 02:52:42;;;;;;;14.90;8.40;;;;;;;8.39;86.17;99408.64;107873;1256;72537;-95
2023/03/10 02:55:17;;;;;;;16.50;8.30;;;;;;;8.34;86.38;99414.38;107151;1256;60067;-96
2023/03/10 02:57:51;;;;;;;;;;;;;;;8.35;86.60;99415.31;108491;1256;59721;-96
2023/03/10 03:00:23;;;;;;;15.70;7.80;;;;;;;8.36;86.52;99411.63;109164;1255;72904;-96
2023/03/10 03:03:19;;;;;;;18.10;9.70;;;;;;;8.35;86.84;99402.81;108711;1256;63727;-95
2023/03/10 03:05:53;;;;;;;28.20;12.20;;;;;;;8.33;86.87;99412.84;107137;1256;73168;-94
2023/03/10 03:08:28;;;;;;;28.10;16.90;;;;;;;8.31;86.81;99432.50;107277;1256;60373;-96
2023/03/10 03:11:01;;;;;;;14.30;9.20;;;;;;;8.24;86.90;99424.75;107944;1256;59612;-96
2023/03/10 03:13:35;;;;;;;12.80;9.50;;;;;;;8.23;86.84;99429.42;109423;1254;72206;-96
2023/03/10 03:16:34;;;;;;;17.30;8.40;;;;;;;8.14;86.88;99427.60;109453;1254;63086;-95
2023/03/10 03:19:21;;;;;;;17.20;9.40;;;;;;;8.11;87.13;99428.30;109403;1256;71577;-95
2023/03/10 03:22:07;;;;;;;14.10;8.30;;;;;;;8.08;87.23;99422.23;109358;1256;66355;-95
2023/03/10 03:25:00;;;;;;;19.00;8.90;;;;;;;8.06;87.64;99425.33;108242;1259;62347;-94
2023/03/10 03:27:31;;;;;;;13.80;8.00;;;;;;;8.05;87.91;99421.60;106984;1255;72926;-96
2023/03/10 03:30:07;;;;;;;17.30;8.20;;;;;;;8.02;88.11;99420.73;106825;1258;64834;-96
2023/03/10 03:32:37;;;;;;;18.70;9.50;;;;;;;7.99;88.24;99417.12;107115;1256;73616;-95
2023/03/10 03:35:21;;;;;;;13.60;9.10;;;;;;;7.96;88.52;99411.25;106836;1256;61942;-96
2023/03/10 03:37:51;;;;;;;22.30;8.90;;;;;;;7.95;88.56;99417.23;106681;1256;61283;-96
2023/03/10 03:40:21;;;;;;;20.50;9.70;;;;;;;7.95;88.49;99422.45;106649;1256;74008;-94
2023/03/10 03:42:51;;;;;;;29.10;11.40;;;;;;;7.94;88.66;99422.70;107076;1255;63607;-96
2023/03/10 03:45:29;;;;;;;15.80;8.30;;;;;;;7.96;88.91;99428.27;107818;1255;72955;-95
2023/03/10 03:48:18;;;;;;;16.10;8.80;;;;;;;8.03;88.93;99432.00;106447;1257;61889;-96
2023/03/10 03:50:50;;;;;;;12.40;8.60;;;;;;;8.06;89.14;99437.30;106342;1256;61280;-95
2023/03/10 03:53:26;;;;;;;16.20;7.80;;;;;;;8.14;89.03;99442.92;106615;1259;72862;-95
2023/03/10 03:55:56;;;;;;;20.90;9.30;;;;;;;8.20;89.07;99443.70;107938;1258;63878;-94
2023/03/10 03:58:29;;;;;;;15.90;8.20;;;;;;;8.27;88.70;99450.65;106719;1256;73479;-95
2023/03/10 04:00:58;;;;;;;14.30;9.30;;;;;;;8.32;88.21;99452.61;106822;1259;60355;-96
2023/03/10 04:03:27;;;;;;;13.40;8.20;;;;;;;8.30;87.72;99453.11;106707;1257;59829;-96
2023/03/10 04:05:57;;;;;;;24.60;9.50;;;;;;;8.24;87.74;99454.56;106878;1255;74044;-96
2023/03/10 04:08:26;;;;;;;17.20;7.50;;;;;;;8.19;87.72;99455.61;107048;1257;62975;-96
2023/03/10 04:11:02;;;;;;;18.20;8.30;;;;;;;8.14;87.74;99455.98;109482;1254;72488;-94
2023/03/10 04:13:38;;;;;;;15.30;7.90;;;;;;;8.09;88.00;99457.87;109470;1254;62994;-95
2023/03/10 04:16:07;;;;;;;14.20;8.40;;;;;;;8.04;88.24;99457.52;109476;1254;59086;-95
2023/03/10 04:19:51;;;;;;;18.60;8.90;;;;;;;8.02;88.45;99456.74;104517;1291;613366;-96
2023/03/10 04:22:41;;;;;;;20.20;10.90;;;;;;;8.02;88.54;99457.13;107639;1265;60192;-95
2023/03/10 04:25:09;;;;;;;16.80;8.80;;;;;;;8.04;88.54;99460.44;109522;1254;60277;-94
2023/03/10 04:27:36;;;;;;;16.00;8.30;;;;;;;8.06;88.38;99470.05;109495;1254;72241;-96
2023/03/10 04:30:06;;;;;;;13.00;7.90;;;;;;;8.11;88.18;99473.94;109517;1254;63793;-93
2023/03/10 04:32:35;;;;;;;17.20;9.30;;;;;;;8.13;88.08;99469.41;108637;1253;864830;-96
2023/03/10 04:35:04;;;;;;;17.70;8.70;;;;;;;8.19;88.02;99464.83;109075;1251;62995;-96
2023/03/10 04:37:32;;;;;;;13.80;7.20;;;;;;;8.25;87.82;99477.29;109643;1252;60359;-94
2023/03/10 04:40:01;;;;;;;17.10;7.80;;;;;;;8.32;87.85;99478.41;108965;1251;71866;-94
2023/03/10 04:42:29;;;;;;;20.10;8.90;;;;;;;8.40;87.61;99476.63;106841;1251;63577;-96
2023/03/10 04:44:58;;;;;;;18.60;9.20;;;;;;;8.48;87.29;99481.85;106600;1255;73790;-96
2023/03/10 04:47:26;;;;;;;26.10;10.60;;;;;;;8.52;86.96;99484.52;106671;1251;60165;-95
2023/03/10 04:49:53;;;;;;;22.50;11.10;;;;;;;8.56;86.51;99486.02;106850;1254;60352;-96
2023/03/10 04:52:21;;;;;;;17.60;11.60;;;;;;;8.58;86.15;99488.80;109424;1251;73074;-96
2023/03/10 04:54:51;;;;;;;20.60;9.50;;;;;;;8.59;85.68;99491.89;109610;1252;62093;-96
2023/03/10 04:57:20;;;;;;;14.20;9.60;;;;;;;8.60;85.55;99491.63;109646;1251;72621;-95
2023/03/10 05:03:06;;;;;;;15.50;9.10;;;;;;;8.64;85.28;99487.18;105277;1267;59886;-94
2023/03/10 05:05:39;;;;;;;13.20;8.20;;;;;;;8.67;85.18;99486.40;106500;1270;74019;-94
2023/03/10 05:08:11;;;;;;;13.50;8.30;;;;;;;8.70;84.73;99487.09;106875;1272;63675;-93
2023/03/10 05:10:43;;;;;;;18.10;7.90;;;;;;;8.70;84.46;99488.86;106257;1278;72682;-96
2023/03/10 05:13:13;;;;;;;17.30;8.70;;;;;;;8.69;84.23;99493.95;105903;1273;60196;-96
2023/03/10 05:15:52;;;;;;;18.60;9.50;;;;;;;8.67;84.14;99493.39;107406;1273;59903;-95
2023/03/10 05:18:23;;;;;;;19.30;9.10;;;;;;;8.66;84.12;99493.30;108182;1272;72905;-95
2023/03/10 05:20:54;;;;;;;26.10;12.80;;;;;;;8.65;83.94;99503.49;107350;1273;63111;-93
2023/03/10 05:23:23;;;;;;;19.70;9.60;;;;;;;8.67;84.00;99508.42;105674;1277;72404;-94
2023/03/10 05:25:52;;;;;;;15.40;9.70;;;;;;;8.70;83.97;99513.39;105711;1278;62325;-96
2023/03/10 05:28:25;;;;;;;19.80;9.90;;;;;;;8.77;83.98;99517.14;105955;1279;60047;-95
2023/03/10 05:30:53;;;;;;;25.10;11.70;;;;;;;8.82;83.67;99520.63;107264;1273;73045;-94
2023/03/10 05:33:24;;;;;;;20.70;11.10;;;;;;;8.88;83.38;99532.03;107817;1274;63836;-92
2023/03/10 05:35:52;;;;;;;18.40;11.10;;;;;;;8.94;83.03;99537.53;107360;1271;72679;-92
2023/03/10 05:38:20;;;;;;;17.70;10.60;;;;;;;8.99;82.67;99547.27;107960;1270;60140;-91
2023/03/10 05:40:49;;;;;;;13.80;9.30;;;;;;;9.00;82.05;99554.36;106304;1274;61221;-96
2023/03/10 05:43:18;;;;;;;18.50;10.00;;;;;;;8.99;81.63;99553.20;106548;1268;73323;-96
2023/03/10 05:45:56;;;;;;;18.90;10.20;;;;;;;8.98;81.50;99553.64;106597;1267;63554;-96
2023/03/10 05:48:47;;;;;;;21.10;10.10;;;;;;;9.03;81.39;99551.53;106896;1269;72859;-96
2023/03/10 05:51:32;;;;;;;15.60;8.30;;;;;;;9.38;81.93;99553.89;106804;1272;64121;-96
2023/03/10 05:54:06;;;;;;;18.40;8.90;;;;;;;9.94;81.07;99555.06;107243;1270;61168;-94
2023/03/10 05:56:46;;;;;;;15.40;9.00;;;;;;;10.76;79.28;99564.07;108141;1272;72746;-96
2023/03/10 05:59:14;;;;;;;19.50;8.60;;;;;;;11.62;76.49;99558.09;107017;1269;63242;-95
2023/03/10 06:05:09;;;;;;;14.40;7.80;;;;;;;13.59;67.82;99562.91;107725;1264;60547;-96
2023/03/10 06:07:44;;;;;;;15.30;8.50;;;;;;;14.37;64.34;99574.48;107049;1268;60349;-96
2023/03/10 06:10:12;;;;;;;14.90;8.80;;;;;;;14.99;61.74;99575.23;106669;1268;74025;-96
2023/03/10 06:12:43;;;;;;;16.00;10.50;;;;;;;15.59;59.74;99584.35;108098;1266;63768;-96
2023/03/10 06:15:26;;;;;;;15.20;8.10;;;;;;;16.23;57.63;99591.65;107640;1273;71925;-95
2023/03/10 06:17:54;;;;;;;14.00;8.20;;;;;;;16.80;55.66;99596.66;106975;1273;60198;-96
2023/03/10 06:21:31;;;;;;;13.50;7.70;;;;;;;17.23;53.75;99597.71;108401;1269;59474;-96
2023/03/10 06:32:00;;;;;;;11.70;7.50;;;;;;;18.75;49.68;99615.82;108378;1260;73577;-93
2023/03/10 06:38:15;;;;;;;15.00;8.40;;;;;;;19.76;46.63;99620.60;108668;1263;61058;-96
2023/03/10 06:41:20;;;;;;;16.70;8.90;;;;;;;20.17;45.16;99619.21;107922;1273;72504;-95
2023/03/10 06:44:17;;;;;;;13.50;8.50;;;;;;;20.61;44.07;99620.14;108148;1273;63901;-94
2023/03/10 06:47:19;;;;;;;15.60;9.50;;;;;;;20.99;43.18;99617.44;108183;1264;73675;-95
2023/03/10 06:50:12;;;;;;;18.70;10.30;;;;;;;21.29;41.70;99621.12;108425;1266;59026;31
2023/03/10 06:53:35;;;;;;;19.10;10.50;;;;;;;21.53;41.39;99621.52;108376;1266;59775;-93
2023/03/10 06:56:33;;;;;;;17.10;10.50;;;;;;;21.87;41.03;99629.39;108529;1267;75006;-96
2023/03/10 07:00:00;;;;;;;15.10;9.20;;;;;;;22.30;40.02;99630.48;108729;1264;63959;-95
2023/03/10 07:03:12;;;;;;;18.80;11.30;;;;;;;22.58;38.96;99628.15;108609;1260;72360;-93
2023/03/10 07:06:13;;;;;;;16.80;10.00;;;;;;;22.65;38.66;99628.40;108573;1264;60237;-96
2023/03/10 07:09:23;;;;;;;16.20;9.70;;;;;;;22.85;38.02;99633.10;108213;1263;59288;-95
2023/03/10 07:12:14;;;;;;;19.20;9.80;;;;;;;23.00;37.65;99632.43;108324;1264;73927;-96
2023/03/10 07:15:13;;;;;;;18.70;8.50;;;;;;;23.28;37.70;99633.36;108155;1265;60999;-96
2023/03/10 07:18:17;;;;;;;10.30;8.50;;;;;;;23.59;37.02;99634.26;108439;1265;74787;-96
2023/03/10 07:41:42;;;;;;;6.30;3.80;;;;;;;25.29;32.29;99656.70;105235;1305;59376;-95
2023/03/10 07:44:30;;;;;;;4.40;3.10;;;;;;;24.23;33.17;99665.69;106579;1287;70895;31
2023/03/10 07:51:19;;;;;;;;;;;;;;;22.42;35.99;99670.04;107217;1280;73118;-96
2023/03/10 07:54:27;;;;;;;4.50;2.90;;;;;;;22.07;37.13;99666.77;105624;1282;59560;-95
2023/03/10 07:57:14;;;;;;;4.30;3.40;;;;;;;21.89;37.54;99670.36;105863;1282;60337;31
2023/03/10 08:00:37;;;;;;;7.30;4.00;;;;;;;21.60;37.60;99669.63;106611;1279;71478;-96
2023/03/10 08:15:48;;;;;;;5.60;5.00;;;;;;;21.02;38.49;99701.30;106782;1284;612487;-93
2023/03/10 08:18:30;;;;;;;4.60;4.10;;;;;;;20.40;39.27;99707.36;107220;1267;826339;-93
2023/03/10 08:21:06;;;;;;;6.80;5.40;;;;;;;20.16;40.07;99714.52;108248;1267;60164;-96
2023/03/10 08:27:17;;;;;;;6.30;5.70;;;;;;;19.80;41.04;99723.25;107261;1273;62576;-96
2023/03/10 08:30:31;;;;;;;8.30;6.20;;;;;;;19.96;41.17;99723.83;107792;1274;72875;-95
2023/03/10 08:33:35;;;;;;;9.20;6.90;;;;;;;20.01;40.66;99729.86;108299;1271;61591;-96
2023/03/10 08:39:55;;;;;;;7.10;6.00;;;;;;;19.64;41.40;99741.45;106841;1274;73142;-92
2023/03/10 08:42:23;;;;;;;7.40;6.20;;;;;;;19.62;41.69;99742.95;106057;1277;63202;-97
2023/03/10 08:44:54;;;;;;;9.30;6.40;;;;;;;19.53;41.87;99745.95;106186;1275;72716;-96
2023/03/10 08:47:35;;;;;;;6.10;5.60;;;;;;;19.36;41.88;99742.10;105905;1274;60133;-96
2023/03/10 08:50:48;;;;;;;7.60;5.50;;;;;;;19.06;42.42;99749.30;105855;1278;59630;-95
2023/03/10 08:53:35;;;;;;;8.60;7.00;;;;;;;18.73;42.74;99754.83;107939;1264;75608;31
2023/03/10 08:56:53;;;;;;;7.70;6.90;;;;;;;18.14;43.83;99763.41;106764;1277;64972;-96
2023/03/10 08:59:37;;;;;;;7.80;6.40;;;;;;;17.61;44.72;99766.10;107203;1271;72492;-95
2023/03/10 09:02:53;;;;;;;8.60;6.20;;;;;;;17.24;46.02;99770.73;107133;1282;58157;-96
2023/03/10 09:05:41;;;;;;;8.10;6.60;;;;;;;17.25;46.61;99775.80;106332;1275;60672;-95
2023/03/10 09:08:45;;;;;;;;;;;;;;;17.31;46.30;99778.39;106671;1273;73107;-95
2023/03/10 09:11:43;;;;;;;8.00;6.80;;;;;;;17.16;46.09;99784.26;107745;1276;63171;-96
2023/03/10 09:14:40;;;;;;;7.50;6.80;;;;;;;17.00;46.00;99788.86;105782;1279;73148;-96
2023/03/10 09:17:13;;;;;;;7.60;6.60;;;;;;;16.86;46.10;99794.57;106133;1284;61243;-96
2023/03/10 09:20:05;;;;;;;6.80;6.10;;;;;;;16.71;46.29;99798.44;106453;1272;59300;-96
2023/03/10 09:22:56;;;;;;;7.90;6.60;;;;;;;16.56;46.39;99803.63;106837;1276;74227;-95
2023/03/10 09:25:56;;;;;;;7.40;6.70;;;;;;;16.40;46.85;99807.16;107756;1273;64399;-96
2023/03/10 09:28:51;;;;;;;;;;;;;;;16.26;46.83;99804.42;107357;1276;72983;-96
2023/03/10 09:31:57;;;;;;;6.70;6.00;;;;;;;16.13;46.95;99805.16;106356;1279;60167;-96
2023/03/10 09:34:55;;;;;;;6.50;6.00;;;;;;;16.21;47.20;99806.88;106654;1279;59547;-96
2023/03/10 09:38:12;;;;;;;6.90;6.30;;;;;;;16.79;46.87;99806.68;106802;1279;73006;-96
2023/03/10 09:41:17;;;;;;;7.80;6.90;;;;;;;17.40;45.64;99805.48;107088;1276;61685;-96
2023/03/10 09:44:49;;;;;;;6.90;6.30;;;;;;;17.62;44.54;99803.48;108043;1263;72736;31
2023/03/10 09:48:11;;;;;;;6.20;5.70;;;;;;;17.69;43.97;99806.27;108317;1267;59342;-96
2023/03/10 09:50:56;;;;;;;5.60;5.20;;;;;;;17.99;43.44;99808.03;108417;1270;59713;-96
2023/03/10 09:54:33;;;;;;;5.80;5.40;;;;;;;18.52;42.65;99804.56;108155;1271;74270;-96
2023/03/10 09:57:23;;;;;;;5.70;5.20;;;;;;;19.25;42.03;99802.84;107579;1271;63592;-94
2023/03/10 10:00:57;;;;;;;6.30;5.80;;;;;;;19.92;40.68;99806.31;107464;1271;72870;-96
2023/03/10 10:13:36;;;;;;;5.50;5.10;;;;;;;21.43;36.96;99799.50;107907;1270;65395;-96
2023/03/10 10:17:24;;;;;;;5.90;5.40;;;;;;;21.49;36.06;99797.25;107854;1268;71648;31
2023/03/10 10:21:39;;;;;;;5.70;5.20;;;;;;;21.28;35.99;99791.84;107390;1267;59268;31
2023/03/10 10:31:31;;;;;;;4.50;4.10;;;;;;;20.57;36.58;99809.41;107914;1270;63272;-95
2023/03/10 10:34:41;;;;;;;4.70;4.00;;;;;;;20.30;37.22;99812.98;107919;1273;72671;-93
2023/03/10 10:37:45;;;;;;;9.50;5.10;;;;;;;20.43;37.77;99810.81;107738;1278;61366;-95
2023/03/10 10:40:23;;;;;;;6.10;4.40;;;;;;;20.71;37.33;99817.92;107847;1272;60409;-96
2023/03/10 10:43:25;;;;;;;5.80;4.50;;;;;;;20.89;36.84;99813.16;107436;1274;72398;-96
2023/03/10 10:46:27;;;;;;;5.10;4.60;;;;;;;20.97;36.94;99811.27;107818;1274;61741;-96
2023/03/10 10:49:02;;;;;;;6.60;4.50;;;;;;;20.98;36.67;99816.45;106886;1274;73601;-96
2023/03/10 10:52:18;;;;;;;5.00;4.50;;;;;;;20.72;36.65;99819.75;107435;1276;59101;-96
2023/03/10 10:56:00;;;;;;;4.80;4.30;;;;;;;20.01;37.25;99818.71;107157;1273;60691;-96
2023/03/10 11:02:42;;;;;;;5.20;4.60;;;;;;;19.78;37.73;99819.81;107762;1270;65077;-96
2023/03/10 11:09:34;;;;;;;6.00;4.90;;;;;;;19.57;38.35;99823.61;108070;1266;59284;-92
2023/03/10 11:12:55;;;;;;;4.90;4.40;;;;;;;19.62;38.31;99819.39;108021;1273;59520;-94
2023/03/10 11:15:51;;;;;;;4.60;4.20;;;;;;;19.82;38.48;99819.52;107317;1277;72430;-94
2023/03/10 11:19:17;;;;;;;6.10;5.50;;;;;;;20.11;37.77;99824.94;107029;1277;64450;-95
2023/03/10 11:22:45;;;;;;;4.70;4.30;;;;;;;20.38;37.51;99822.73;107255;1277;74052;-96
2023/03/10 11:30:29;;;;;;;6.00;4.50;;;;;;;20.79;36.64;99831.26;107702;1278;59187;-95
2023/03/10 11:33:54;;;;;;;4.60;4.20;;;;;;;20.75;36.45;99831.15;106909;1280;72783;-95
2023/03/10 11:36:48;;;;;;;5.70;5.10;;;;;;;20.68;36.72;99830.98;106762;1280;63862;-96
2023/03/10 11:40:36;;;;;;;6.00;4.90;;;;;;;20.83;36.43;99826.15;107357;1270;72639;31
2023/03/10 11:43:54;;;;;;;4.50;4.00;;;;;;;21.16;36.40;99835.79;106743;1276;60416;-94
2023/03/10 11:47:21;;;;;;;3.80;3.50;;;;;;;21.22;35.96;99842.23;107978;1274;61660;-96
2023/03/10 11:50:29;;;;;;;4.90;3.70;;;;;;;21.08;35.99;99846.48;107169;1282;73687;-95
2023/03/10 11:53:29;;;;;;;4.20;3.80;;;;;;;20.68;36.29;99857.30;106443;1282;63018;-95
2023/03/10 11:56:00;;;;;;;4.60;4.20;;;;;;;20.36;36.85;99853.01;107028;1282;71586;-93
2023/03/10 11:59:26;;;;;;;3.90;3.60;;;;;;;20.27;37.18;99854.70;107253;1282;60340;-93
2023/03/10 12:01:58;;;;;;;5.10;3.90;;;;;;;20.13;37.51;99852.04;105781;1282;61442;-96
2023/03/10 12:04:32;;;;;;;5.80;5.30;;;;;;;19.99;37.54;99851.63;106931;1282;74116;-92
2023/03/10 12:07:02;;;;;;;4.60;4.10;;;;;;;19.97;37.60;99857.16;107095;1282;62573;-93
2023/03/10 12:10:10;;;;;;;4.40;4.00;;;;;;;19.95;37.48;99858.98;107552;1275;71394;-93
2023/03/10 12:12:58;;;;;;;8.90;4.30;;;;;;;19.80;37.56;99859.80;106676;1275;60434;-94
2023/03/10 12:15:29;;;;;;;6.40;4.30;;;;;;;19.72;37.89;99858.57;106238;1276;60854;-93
2023/03/10 12:17:59;;;;;;;5.40;4.90;;;;;;;19.59;38.04;99854.64;106204;1277;73148;-94
2023/03/10 12:20:36;;;;;;;4.40;3.60;;;;;;;19.46;38.49;99864.07;106286;1277;64856;-96
2023/03/10 12:23:32;;;;;;;6.10;4.10;;;;;;;19.26;38.45;99862.73;106925;1277;74302;-94
2023/03/10 12:26:05;;;;;;;4.70;3.90;;;;;;;18.82;38.85;99864.23;106229;1283;58932;-96
2023/03/10 12:42:38;;;;;;;11.20;8.50;;;;;;;16.10;44.45;99883.04;105945;1267;59034;-95
2023/03/10 12:56:48;;;;;;;6.20;5.40;;;;;;;14.05;49.62;99885.34;106632;1278;612775;-96
2023/03/10 13:00:27;;;;;;;5.80;5.30;;;;;;;13.72;50.35;99895.52;108355;1256;58113;-95
2023/03/10 13:14:39;;;;;;;4.50;4.10;;;;;;;13.71;50.88;99904.21;106749;1282;612994;-94
2023/03/10 13:17:50;;;;;;;4.30;3.90;;;;;;;13.80;50.87;99909.09;107788;1272;170620;-95
2023/03/10 13:21:35;;;;;;;6.10;4.40;;;;;;;13.78;50.55;99905.55;108014;1275;60349;-96
2023/03/10 13:38:31;;;;;;;8.40;6.20;;;;;;;12.99;52.76;99902.82;104013;1286;60719;-96
2023/03/10 13:45:09;;;;;;;9.10;6.80;;;;;;;12.45;54.35;99902.23;106449;1288;63853;31
2023/03/10 13:47:48;;;;;;;8.80;6.40;;;;;;;12.24;55.12;99898.42;105833;1289;72795;-96
2023/03/10 13:50:36;;;;;;;8.60;6.10;;;;;;;12.13;55.51;99904.39;105486;1288;59515;-96
2023/03/10 13:53:46;;;;;;;7.80;6.30;;;;;;;12.04;55.63;99906.11;107120;1275;59585;31
2023/03/10 13:57:20;;;;;;;8.20;5.30;;;;;;;11.86;55.73;99912.39;107551;1278;74434;-96
2023/03/10 14:00:49;;;;;;;7.00;6.10;;;;;;;11.67;56.42;99911.39;106923;1280;62712;-96
2023/03/10 14:03:31;;;;;;;7.80;5.90;;;;;;;11.55;56.85;99912.60;106510;1280;71451;-96
2023/03/10 14:13:59;;;;;;;8.10;5.80;;;;;;;10.97;58.30;99918.69;106826;1277;74476;-96
2023/03/10 14:19:54;;;;;;;8.20;4.10;;;;;;;10.76;58.77;99917.73;107675;1279;73680;-94
2023/03/10 14:23:56;;;;;;;10.40;5.40;;;;;;;10.65;58.81;99921.49;93038;1279;59207;-93
2023/03/10 14:33:25;;;;;;;9.90;6.40;;;;;;;10.39;60.03;99929.09;107699;1279;64072;-96
2023/03/10 14:36:54;;;;;;;7.60;5.50;;;;;;;10.29;61.18;99931.70;107302;1276;74160;-96
2023/03/10 14:39:56;;;;;;;8.00;5.80;;;;;;;10.22;61.82;99939.33;106253;1281;59614;-96
2023/03/10 14:43:05;;;;;;;6.10;4.40;;;;;;;10.15;62.37;99942.45;107037;1279;60825;-95
2023/03/10 14:45:44;;;;;;;7.10;4.50;;;;;;;10.03;62.66;99939.31;106821;1284;73528;-96
2023/03/10 14:49:14;;;;;;;7.90;4.20;;;;;;;9.96;63.15;99942.53;107282;1279;63145;-96
2023/03/10 14:56:38;;;;;;;5.30;4.00;;;;;;;9.84;63.85;99954.33;107503;1278;61693;31
2023/03/10 14:59:48;;;;;;;10.00;5.20;;;;;;;9.76;63.94;99952.60;107198;1278;59398;-94
2023/03/10 15:13:29;;;;;;;7.60;5.20;;;;;;;9.48;64.59;99949.25;107543;1270;60374;-96
2023/03/10 15:16:24;;;;;;;6.30;5.10;;;;;;;9.40;64.69;99957.41;107596;1276;59673;-96
2023/03/10 15:19:28;;;;;;;7.60;5.40;;;;;;;9.34;64.82;99957.51;106955;1273;71250;-95
2023/03/10 15:22:02;;;;;;;8.50;5.80;;;;;;;9.28;65.10;99970.95;105602;1279;64651;-93
2023/03/10 15:25:03;;;;;;;5.40;4.70;;;;;;;9.23;65.01;99971.98;105825;1279;72686;-94
2023/03/10 15:27:33;;;;;;;6.70;4.80;;;;;;;9.18;65.31;99973.70;106093;1279;61994;-94
2023/03/10 15:30:10;;;;;;;4.80;4.30;;;;;;;9.12;65.60;99978.64;106258;1283;59774;-94
2023/03/10 15:33:01;;;;;;;8.50;4.60;;;;;;;9.06;65.94;99981.06;107462;1280;73118;-94
2023/03/10 15:35:32;;;;;;;8.80;6.50;;;;;;;9.04;65.97;99981.76;107268;1279;63922;-92
2023/03/10 15:38:02;;;;;;;7.50;6.20;;;;;;;9.02;66.32;99984.64;107202;1278;72669;-94
